createdAt,value
2023-04-02T00:00:02.320Z,0.00
2023-04-02T00:01:02.297Z,0.00
2023-04-02T00:02:02.313Z,0.00
2023-04-02T00:03:02.368Z,0.00
2023-04-02T00:04:02.626Z,0.00
2023-04-02T00:05:02.243Z,0.00
2023-04-02T00:06:02.242Z,0.00
2023-04-02T00:07:02.247Z,0.00
2023-04-02T00:08:02.220Z,0.00
2023-04-02T00:09:02.949Z,0.00
2023-04-02T00:10:02.207Z,0.00
2023-04-02T00:11:02.190Z,0.00
2023-04-02T00:12:02.177Z,0.00
2023-04-02T00:13:02.171Z,0.00
2023-04-02T00:14:02.456Z,0.00
2023-04-02T00:15:02.138Z,0.00
2023-04-02T00:16:02.145Z,0.00
2023-04-02T00:17:02.126Z,0.00
2023-04-02T00:18:02.151Z,0.00
2023-04-02T00:19:03.050Z,0.00
2023-04-02T00:20:02.106Z,0.00
2023-04-02T00:21:02.079Z,0.00
2023-04-02T00:22:02.072Z,0.00
2023-04-02T00:23:02.061Z,0.00
2023-04-02T00:24:02.339Z,0.00
2023-04-02T00:25:02.038Z,0.00
2023-04-02T00:26:02.035Z,0.00
2023-04-02T00:27:02.016Z,0.00
2023-04-02T00:28:02.020Z,0.00
2023-04-02T00:29:02.387Z,0.00
2023-04-02T00:30:01.985Z,0.00
2023-04-02T00:31:01.971Z,0.00
2023-04-02T00:32:02.012Z,0.00
2023-04-02T00:33:02.001Z,0.00
2023-04-02T00:34:02.308Z,0.00
2023-04-02T00:35:01.943Z,0.00
2023-04-02T00:36:01.953Z,0.00
2023-04-02T00:37:01.957Z,0.00
2023-04-02T00:38:01.904Z,0.00
2023-04-02T00:40:28.090Z,0.00
2023-04-02T00:40:33.596Z,0.00
2023-04-02T00:41:33.588Z,0.00
2023-04-02T00:42:33.573Z,0.00
2023-04-02T00:43:33.566Z,0.00
2023-04-02T00:44:33.585Z,0.00
2023-04-02T00:45:33.743Z,0.00
2023-04-02T00:46:33.536Z,0.00
2023-04-02T00:47:33.555Z,0.00
2023-04-02T00:48:33.518Z,0.00
2023-04-02T00:49:34.275Z,0.00
2023-04-02T00:50:33.486Z,0.00
2023-04-02T00:51:33.483Z,0.00
2023-04-02T00:52:33.469Z,0.00
2023-04-02T00:53:33.463Z,0.00
2023-04-02T00:54:34.236Z,0.00
2023-04-02T00:55:33.684Z,0.00
2023-04-02T00:56:33.425Z,0.00
2023-04-02T00:57:33.588Z,0.00
2023-04-02T00:58:33.405Z,0.00
2023-04-02T00:59:34.175Z,0.00
2023-04-02T01:00:33.423Z,0.00
2023-04-02T01:01:33.445Z,0.00
2023-04-02T01:02:33.414Z,0.00
2023-04-02T01:03:33.569Z,0.00
2023-04-02T01:04:33.671Z,0.00
2023-04-02T01:05:33.654Z,0.00
2023-04-02T01:06:33.320Z,0.00
2023-04-02T01:07:33.309Z,0.00
2023-04-02T01:08:33.296Z,0.00
2023-04-02T01:09:34.018Z,0.00
2023-04-02T01:10:33.280Z,0.00
2023-04-02T01:11:33.270Z,0.00
2023-04-02T01:12:33.250Z,0.00
2023-04-02T01:13:33.257Z,0.00
2023-04-02T01:14:33.768Z,0.00
2023-04-02T01:15:33.558Z,0.00
2023-04-02T01:16:33.285Z,0.00
2023-04-02T01:17:33.224Z,0.00
2023-04-02T01:18:33.218Z,0.00
2023-04-02T01:19:33.917Z,0.00
2023-04-02T01:20:33.169Z,0.00
2023-04-02T01:21:33.161Z,0.00
2023-04-02T01:22:33.160Z,0.00
2023-04-02T01:23:33.137Z,0.00
2023-04-02T01:24:33.891Z,0.00
2023-04-02T01:25:33.322Z,0.00
2023-04-02T01:26:33.111Z,0.00
2023-04-02T01:27:33.095Z,0.00
2023-04-02T01:28:33.090Z,0.00
2023-04-02T01:29:33.814Z,0.00
2023-04-02T01:30:33.068Z,0.00
2023-04-02T01:31:33.067Z,0.00
2023-04-02T01:32:33.056Z,0.00
2023-04-02T01:33:33.036Z,0.00
2023-04-02T01:34:33.372Z,0.00
2023-04-02T01:35:33.324Z,0.00
2023-04-02T01:36:33.007Z,0.00
2023-04-02T01:37:32.998Z,0.00
2023-04-02T01:38:32.985Z,0.00
2023-04-02T01:39:33.709Z,0.00
2023-04-02T01:40:32.965Z,0.00
2023-04-02T01:41:32.950Z,0.00
2023-04-02T01:42:32.943Z,0.00
2023-04-02T01:43:32.934Z,0.00
2023-04-02T01:44:32.945Z,0.00
2023-04-02T01:45:33.094Z,0.00
2023-04-02T01:46:32.934Z,0.00
2023-04-02T01:47:32.934Z,0.00
2023-04-02T01:48:32.884Z,0.00
2023-04-02T01:49:32.863Z,0.00
2023-04-02T01:50:33.676Z,0.00
2023-04-02T01:51:32.875Z,0.00
2023-04-02T01:52:32.835Z,0.00
2023-04-02T01:53:32.818Z,0.00
2023-04-02T01:54:33.521Z,0.00
2023-04-02T01:55:33.128Z,0.00
2023-04-02T01:56:32.794Z,0.00
2023-04-02T01:57:32.852Z,0.00
2023-04-02T01:58:32.780Z,0.00
2023-04-02T01:59:32.762Z,0.00
2023-04-02T02:00:33.579Z,0.00
2023-04-02T02:01:32.736Z,0.00
2023-04-02T02:02:32.824Z,0.00
2023-04-02T02:03:32.717Z,0.00
2023-04-02T02:04:32.707Z,0.00
2023-04-02T02:05:33.281Z,0.00
2023-04-02T02:06:32.687Z,0.00
2023-04-02T02:07:32.673Z,0.00
2023-04-02T02:08:32.685Z,0.00
2023-04-02T02:09:32.652Z,0.00
2023-04-02T02:10:33.513Z,0.00
2023-04-02T02:11:32.633Z,0.00
2023-04-02T02:12:32.629Z,0.00
2023-04-02T02:13:32.618Z,0.00
2023-04-02T02:14:32.615Z,0.00
2023-04-02T02:15:33.211Z,0.00
2023-04-02T02:16:32.622Z,0.00
2023-04-02T02:17:32.620Z,0.00
2023-04-02T02:18:32.572Z,0.00
2023-04-02T02:19:32.561Z,0.00
2023-04-02T02:20:32.856Z,0.00
2023-04-02T02:21:32.539Z,0.00
2023-04-02T02:22:32.533Z,0.00
2023-04-02T02:23:32.518Z,0.00
2023-04-02T02:24:32.506Z,0.00
2023-04-02T02:25:33.621Z,0.00
2023-04-02T02:26:32.490Z,0.00
2023-04-02T02:27:32.473Z,0.00
2023-04-02T02:28:32.476Z,0.00
2023-04-02T02:29:32.451Z,0.00
2023-04-02T02:30:33.344Z,0.00
2023-04-02T02:31:32.448Z,0.00
2023-04-02T02:32:32.448Z,0.00
2023-04-02T02:33:32.415Z,0.00
2023-04-02T02:34:32.406Z,0.00
2023-04-02T02:35:32.617Z,0.00
2023-04-02T02:36:32.384Z,0.00
2023-04-02T02:37:32.372Z,0.00
2023-04-02T02:38:32.366Z,0.00
2023-04-02T02:39:32.350Z,0.00
2023-04-02T02:40:33.089Z,0.00
2023-04-02T02:41:32.332Z,0.00
2023-04-02T02:42:32.328Z,0.00
2023-04-02T02:43:32.310Z,0.00
2023-04-02T02:44:32.312Z,0.00
2023-04-02T02:45:33.133Z,0.00
2023-04-02T02:46:32.284Z,0.00
2023-04-02T02:47:32.301Z,0.00
2023-04-02T02:48:32.262Z,0.00
2023-04-02T02:49:32.250Z,0.00
2023-04-02T02:50:32.975Z,0.00
2023-04-02T02:51:32.225Z,0.00
2023-04-02T02:52:32.221Z,0.00
2023-04-02T02:53:32.205Z,0.00
2023-04-02T02:54:32.204Z,0.00
2023-04-02T02:55:32.996Z,0.00
2023-04-02T02:56:32.177Z,0.00
2023-04-02T02:57:32.197Z,0.00
2023-04-02T02:58:32.157Z,0.00
2023-04-02T02:59:32.147Z,0.00
2023-04-02T03:00:32.146Z,0.00
2023-04-02T03:01:32.197Z,0.00
2023-04-02T03:02:32.226Z,0.00
2023-04-02T03:03:32.239Z,0.00
2023-04-02T03:04:32.096Z,0.00
2023-04-02T03:05:32.455Z,0.00
2023-04-02T03:06:32.079Z,0.00
2023-04-02T03:07:32.064Z,0.00
2023-04-02T03:08:32.054Z,0.00
2023-04-02T03:09:32.047Z,0.00
2023-04-02T03:10:32.815Z,0.00
2023-04-02T03:11:32.021Z,0.00
2023-04-02T03:12:32.013Z,0.00
2023-04-02T03:13:32.005Z,0.00
2023-04-02T03:14:31.992Z,0.00
2023-04-02T03:15:32.310Z,0.00
2023-04-02T03:16:31.973Z,0.00
2023-04-02T03:17:31.970Z,0.00
2023-04-02T03:18:31.956Z,0.00
2023-04-02T03:19:31.933Z,0.00
2023-04-02T03:20:32.386Z,0.00
2023-04-02T03:21:31.926Z,0.00
2023-04-02T03:22:31.915Z,0.00
2023-04-02T03:23:31.898Z,0.00
2023-04-02T03:24:31.893Z,0.00
2023-04-02T03:25:32.764Z,0.00
2023-04-02T03:26:31.880Z,0.00
2023-04-02T03:27:31.858Z,0.00
2023-04-02T03:28:31.879Z,0.00
2023-04-02T03:29:31.834Z,0.00
2023-04-02T03:30:32.518Z,0.00
2023-04-02T03:31:31.828Z,0.00
2023-04-02T03:32:31.847Z,0.00
2023-04-02T03:33:31.799Z,0.00
2023-04-02T03:34:31.798Z,0.00
2023-04-02T03:35:32.108Z,0.00
2023-04-02T03:36:31.777Z,0.00
2023-04-02T03:37:31.760Z,0.00
2023-04-02T03:38:31.759Z,0.00
2023-04-02T03:39:31.735Z,0.00
2023-04-02T03:40:32.418Z,0.00
2023-04-02T03:41:31.719Z,0.00
2023-04-02T03:42:31.709Z,0.00
2023-04-02T03:43:31.694Z,0.00
2023-04-02T03:44:31.686Z,0.00
2023-04-02T03:45:31.948Z,0.00
2023-04-02T03:46:31.730Z,0.00
2023-04-02T03:47:31.678Z,0.00
2023-04-02T03:48:31.657Z,0.00
2023-04-02T03:49:31.632Z,0.00
2023-04-02T03:50:31.950Z,0.00
2023-04-02T03:51:31.616Z,0.00
2023-04-02T03:52:31.604Z,0.00
2023-04-02T03:53:31.592Z,0.00
2023-04-02T03:54:31.584Z,0.00
2023-04-02T03:55:31.623Z,0.00
2023-04-02T03:56:31.989Z,0.00
2023-04-02T03:57:31.586Z,0.00
2023-04-02T03:58:31.546Z,0.00
2023-04-02T03:59:31.528Z,0.00
2023-04-02T04:00:31.884Z,0.00
2023-04-02T04:01:31.504Z,0.00
2023-04-02T04:02:31.678Z,0.00
2023-04-02T04:03:31.485Z,0.00
2023-04-02T04:04:31.511Z,0.00
2023-04-02T04:05:31.816Z,0.00
2023-04-02T04:06:31.461Z,0.00
2023-04-02T04:07:31.455Z,0.00
2023-04-02T04:08:31.441Z,0.00
2023-04-02T04:09:31.423Z,0.00
2023-04-02T04:10:32.369Z,0.00
2023-04-02T04:11:31.403Z,0.00
2023-04-02T04:12:31.410Z,0.00
2023-04-02T04:13:31.386Z,0.00
2023-04-02T04:14:31.389Z,0.00
2023-04-02T04:15:31.768Z,0.00
2023-04-02T04:16:31.433Z,0.00
2023-04-02T04:17:31.404Z,0.00
2023-04-02T04:18:31.332Z,0.00
2023-04-02T04:19:31.319Z,0.00
2023-04-02T04:20:31.758Z,0.00
2023-04-02T04:21:31.484Z,0.00
2023-04-02T04:22:31.293Z,0.00
2023-04-02T04:23:31.278Z,0.00
2023-04-02T04:24:31.273Z,0.00
2023-04-02T04:25:32.133Z,0.00
2023-04-02T04:26:31.197Z,1.00
2023-04-02T04:27:31.234Z,0.00
2023-04-02T04:28:31.233Z,0.00
2023-04-02T04:29:31.186Z,1.00
2023-04-02T04:30:31.718Z,0.00
2023-04-02T04:31:31.208Z,0.00
2023-04-02T04:32:31.213Z,0.00
2023-04-02T04:33:31.177Z,0.00
2023-04-02T04:34:31.182Z,0.00
2023-04-02T04:35:31.576Z,0.00
2023-04-02T04:36:31.133Z,2.00
2023-04-02T04:37:31.081Z,1.00
2023-04-02T04:38:31.076Z,1.00
2023-04-02T04:39:31.060Z,3.00
2023-04-02T04:40:31.911Z,1.00
2023-04-02T04:41:31.052Z,1.00
2023-04-02T04:42:31.038Z,3.00
2023-04-02T04:43:31.024Z,2.00
2023-04-02T04:44:31.013Z,7.00
2023-04-02T04:45:31.427Z,5.00
2023-04-02T04:46:31.030Z,3.00
2023-04-02T04:47:31.019Z,6.00
2023-04-02T04:48:30.995Z,7.00
2023-04-02T04:49:30.959Z,10.00
2023-04-02T04:50:31.761Z,12.00
2023-04-02T04:51:30.942Z,12.00
2023-04-02T04:52:30.940Z,13.00
2023-04-02T04:53:30.935Z,24.00
2023-04-02T04:54:30.915Z,20.00
2023-04-02T04:55:31.706Z,21.00
2023-04-02T04:56:30.894Z,31.00
2023-04-02T04:57:30.906Z,31.00
2023-04-02T04:58:30.872Z,41.00
2023-04-02T04:59:30.860Z,39.00
2023-04-02T05:00:31.431Z,45.00
2023-04-02T05:01:30.850Z,40.00
2023-04-02T05:02:30.851Z,58.00
2023-04-02T05:03:30.822Z,76.00
2023-04-02T05:04:30.824Z,57.00
2023-04-02T05:05:31.100Z,71.00
2023-04-02T05:06:30.797Z,71.00
2023-04-02T05:07:30.775Z,81.00
2023-04-02T05:08:30.769Z,87.00
2023-04-02T05:09:30.750Z,93.00
2023-04-02T05:10:31.561Z,98.00
2023-04-02T05:11:30.731Z,105.00
2023-04-02T05:12:30.724Z,99.00
2023-04-02T05:13:30.714Z,102.00
2023-04-02T05:14:30.704Z,101.00
2023-04-02T05:15:31.100Z,106.00
2023-04-02T05:16:30.729Z,125.00
2023-04-02T05:17:30.792Z,116.00
2023-04-02T05:18:30.667Z,117.00
2023-04-02T05:19:30.659Z,127.00
2023-04-02T05:20:30.686Z,127.00
2023-04-02T05:21:30.626Z,142.00
2023-04-02T05:22:30.626Z,171.00
2023-04-02T05:23:30.624Z,146.00
2023-04-02T05:24:30.602Z,148.00
2023-04-02T05:25:31.372Z,171.00
2023-04-02T05:26:30.586Z,183.00
2023-04-02T05:27:30.568Z,164.00
2023-04-02T05:28:30.561Z,127.00
2023-04-02T05:29:30.544Z,107.00
2023-04-02T05:30:31.507Z,145.00
2023-04-02T05:31:30.572Z,146.00
2023-04-02T05:32:30.527Z,187.00
2023-04-02T05:33:30.511Z,212.00
2023-04-02T05:34:30.490Z,209.00
2023-04-02T05:35:30.495Z,216.00
2023-04-02T05:36:30.661Z,288.00
2023-04-02T05:37:30.469Z,249.00
2023-04-02T05:38:30.450Z,223.00
2023-04-02T05:39:30.454Z,223.00
2023-04-02T05:40:30.436Z,209.00
2023-04-02T05:41:30.482Z,194.00
2023-04-02T05:42:30.415Z,202.00
2023-04-02T05:43:30.410Z,223.00
2023-04-02T05:44:30.407Z,214.00
2023-04-02T05:45:30.396Z,213.00
2023-04-02T05:46:30.416Z,206.00
2023-04-02T05:47:30.381Z,194.00
2023-04-02T05:48:30.358Z,208.00
2023-04-02T05:49:30.348Z,216.00
2023-04-02T05:50:30.394Z,210.00
2023-04-02T05:51:30.338Z,209.00
2023-04-02T05:52:30.313Z,218.00
2023-04-02T05:53:30.307Z,213.00
2023-04-02T05:54:30.300Z,235.00
2023-04-02T05:55:30.285Z,214.00
2023-04-02T05:56:30.286Z,223.00
2023-04-02T05:57:42.687Z,223.00
2023-04-02T05:58:36.213Z,228.00
2023-04-02T05:59:30.245Z,272.00
2023-04-02T06:00:30.260Z,287.00
2023-04-02T06:01:30.567Z,330.00
2023-04-02T06:02:30.285Z,347.00
2023-04-02T06:03:30.282Z,351.00
2023-04-02T06:04:30.188Z,346.00
2023-04-02T06:05:30.182Z,381.00
2023-04-02T06:06:30.194Z,399.00
2023-04-02T06:07:30.155Z,420.00
2023-04-02T06:08:30.142Z,398.00
2023-04-02T06:09:30.144Z,492.00
2023-04-02T06:10:30.129Z,526.00
2023-04-02T06:11:30.427Z,481.00
2023-04-02T06:12:30.103Z,504.00
2023-04-02T06:13:30.112Z,504.00
2023-04-02T06:14:30.082Z,440.00
2023-04-02T06:15:30.078Z,544.00
2023-04-02T06:16:30.116Z,561.00
2023-04-02T06:17:30.097Z,589.00
2023-04-02T06:18:30.042Z,474.00
2023-04-02T06:19:30.033Z,570.00
2023-04-02T06:20:30.035Z,590.00
2023-04-02T06:21:30.394Z,699.00
2023-04-02T06:22:30.013Z,673.00
2023-04-02T06:23:29.998Z,701.00
2023-04-02T06:24:29.979Z,812.00
2023-04-02T06:25:29.992Z,744.00
2023-04-02T06:26:29.982Z,808.00
2023-04-02T06:27:29.960Z,672.00
2023-04-02T06:28:29.949Z,653.00
2023-04-02T06:29:29.934Z,609.00
2023-04-02T06:30:29.920Z,833.00
2023-04-02T06:31:29.932Z,846.00
2023-04-02T06:32:29.925Z,795.00
2023-04-02T06:33:29.893Z,916.00
2023-04-02T06:34:29.881Z,873.00
2023-04-02T06:35:29.868Z,913.00
2023-04-02T06:36:29.882Z,827.00
2023-04-02T06:37:29.875Z,700.00
2023-04-02T06:38:29.837Z,747.00
2023-04-02T06:39:29.836Z,867.00
2023-04-02T06:40:29.823Z,1225.00
2023-04-02T06:41:29.834Z,1203.00
2023-04-02T06:42:29.817Z,979.00
2023-04-02T06:43:29.796Z,1176.00
2023-04-02T06:44:29.778Z,1430.00
2023-04-02T06:45:29.772Z,1338.00
2023-04-02T06:46:29.952Z,1483.00
2023-04-02T06:47:29.800Z,1351.00
2023-04-02T06:48:29.747Z,1278.00
2023-04-02T06:49:29.762Z,1253.00
2023-04-02T06:50:29.746Z,1174.00
2023-04-02T06:51:30.076Z,1003.00
2023-04-02T06:52:29.710Z,865.00
2023-04-02T06:53:29.693Z,825.00
2023-04-02T06:54:29.676Z,834.00
2023-04-02T06:55:29.711Z,748.00
2023-04-02T06:56:29.672Z,829.00
2023-04-02T06:57:29.719Z,792.00
2023-04-02T06:58:29.639Z,868.00
2023-04-02T06:59:29.628Z,1086.00
2023-04-02T07:00:29.614Z,1145.00
2023-04-02T07:01:30.023Z,1180.00
2023-04-02T07:02:29.638Z,1251.00
2023-04-02T07:03:29.596Z,1655.00
2023-04-02T07:04:29.597Z,1807.00
2023-04-02T07:05:29.568Z,1359.00
2023-04-02T07:06:29.563Z,1612.00
2023-04-02T07:07:29.549Z,1383.00
2023-04-02T07:08:29.530Z,1305.00
2023-04-02T07:09:29.524Z,1170.00
2023-04-02T07:10:29.520Z,1112.00
2023-04-02T07:11:29.529Z,1217.00
2023-04-02T07:12:29.494Z,1007.00
2023-04-02T07:13:29.483Z,1012.00
2023-04-02T07:14:29.474Z,1248.00
2023-04-02T07:15:29.456Z,1030.00
2023-04-02T07:16:29.819Z,1108.00
2023-04-02T07:17:29.451Z,1147.00
2023-04-02T07:18:29.435Z,1222.00
2023-04-02T07:19:29.417Z,1138.00
2023-04-02T07:20:29.410Z,1138.00
2023-04-02T07:21:29.587Z,1322.00
2023-04-02T07:22:29.390Z,1345.00
2023-04-02T07:23:29.379Z,1309.00
2023-04-02T07:24:29.368Z,1017.00
2023-04-02T07:25:29.356Z,1179.00
2023-04-02T07:26:29.708Z,1129.00
2023-04-02T07:27:29.366Z,1248.00
2023-04-02T07:28:29.319Z,1414.00
2023-04-02T07:29:29.314Z,1185.00
2023-04-02T07:30:29.301Z,1119.00
2023-04-02T07:31:29.390Z,1140.00
2023-04-02T07:32:29.348Z,967.00
2023-04-02T07:33:29.272Z,895.00
2023-04-02T07:34:29.260Z,936.00
2023-04-02T07:35:29.255Z,1160.00
2023-04-02T07:36:29.585Z,1009.00
2023-04-02T07:37:29.231Z,1050.00
2023-04-02T07:38:29.217Z,1073.00
2023-04-02T07:39:29.216Z,1082.00
2023-04-02T07:40:29.194Z,1230.00
2023-04-02T07:41:29.226Z,1167.00
2023-04-02T07:42:29.268Z,1167.00
2023-04-02T07:43:29.167Z,1209.00
2023-04-02T07:44:29.166Z,1146.00
2023-04-02T07:45:29.146Z,1273.00
2023-04-02T07:46:29.173Z,1213.00
2023-04-02T07:47:29.153Z,1305.00
2023-04-02T07:48:29.123Z,1245.00
2023-04-02T07:49:29.105Z,1408.00
2023-04-02T07:50:29.097Z,1673.00
2023-04-02T07:51:29.117Z,1569.00
2023-04-02T07:52:29.077Z,1619.00
2023-04-02T07:53:29.066Z,1807.00
2023-04-02T07:54:29.060Z,1721.00
2023-04-02T07:55:29.049Z,1582.00
2023-04-02T07:56:29.413Z,1604.00
2023-04-02T07:57:29.080Z,2207.00
2023-04-02T07:58:29.010Z,2168.00
2023-04-02T07:59:29.014Z,2356.00
2023-04-02T08:00:29.109Z,2348.00
2023-04-02T08:01:29.023Z,2277.00
2023-04-02T08:02:29.043Z,2305.00
2023-04-02T08:03:29.132Z,2213.00
2023-04-02T08:04:28.950Z,1998.00
2023-04-02T08:05:28.948Z,1776.00
2023-04-02T08:06:28.931Z,1874.00
2023-04-02T08:07:28.947Z,1692.00
2023-04-02T08:08:28.905Z,1847.00
2023-04-02T08:09:28.905Z,1543.00
2023-04-02T08:10:28.884Z,2011.00
2023-04-02T08:11:30.570Z,1779.00
2023-04-02T08:12:28.890Z,1734.00
2023-04-02T08:13:28.967Z,1501.00
2023-04-02T08:14:28.852Z,1649.00
2023-04-02T08:15:28.846Z,1729.00
2023-04-02T08:16:28.931Z,1985.00
2023-04-02T08:17:29.202Z,1800.00
2023-04-02T08:18:28.850Z,2128.00
2023-04-02T08:19:28.882Z,2334.00
2023-04-02T08:20:28.899Z,2413.00
2023-04-02T08:21:28.895Z,2669.00
2023-04-02T08:22:29.106Z,2683.00
2023-04-02T08:23:28.779Z,2472.00
2023-04-02T08:24:28.747Z,2087.00
2023-04-02T08:25:28.751Z,2305.00
2023-04-02T08:26:28.723Z,2273.00
2023-04-02T08:27:29.051Z,2181.00
2023-04-02T08:28:28.706Z,2129.00
2023-04-02T08:29:28.705Z,2063.00
2023-04-02T08:30:28.698Z,2225.00
2023-04-02T08:31:28.732Z,2190.00
2023-04-02T08:32:29.190Z,2009.00
2023-04-02T08:33:28.700Z,2516.00
2023-04-02T08:34:28.644Z,2873.00
2023-04-02T08:35:28.634Z,2613.00
2023-04-02T08:36:28.766Z,2652.00
2023-04-02T08:37:28.993Z,2445.00
2023-04-02T08:38:28.620Z,2296.00
2023-04-02T08:39:28.601Z,2680.00
2023-04-02T08:40:28.611Z,2627.00
2023-04-02T08:41:28.579Z,2694.00
2023-04-02T08:42:28.865Z,2895.00
2023-04-02T08:43:28.578Z,2849.00
2023-04-02T08:44:28.538Z,2699.00
2023-04-02T08:45:28.580Z,2827.00
2023-04-02T08:46:28.556Z,2845.00
2023-04-02T08:47:28.890Z,2947.00
2023-04-02T08:48:28.499Z,2414.00
2023-04-02T08:49:28.490Z,2336.00
2023-04-02T08:50:28.481Z,2067.00
2023-04-02T08:51:28.474Z,2144.00
2023-04-02T08:52:28.897Z,2155.00
2023-04-02T08:53:28.483Z,1888.00
2023-04-02T08:54:29.006Z,2720.00
2023-04-02T08:55:28.427Z,2613.00
2023-04-02T08:56:28.416Z,2141.00
2023-04-02T08:57:28.937Z,2275.00
2023-04-02T08:58:28.394Z,2190.00
2023-04-02T08:59:28.410Z,1975.00
2023-04-02T09:00:28.375Z,2264.00
2023-04-02T09:01:28.409Z,2123.00
2023-04-02T09:02:28.445Z,2034.00
2023-04-02T09:03:28.364Z,1974.00
2023-04-02T09:04:28.328Z,2173.00
2023-04-02T09:05:28.331Z,2246.00
2023-04-02T09:06:28.402Z,1914.00
2023-04-02T09:07:28.659Z,1969.00
2023-04-02T09:08:28.307Z,1880.00
2023-04-02T09:09:28.310Z,1821.00
2023-04-02T09:10:28.287Z,1791.00
2023-04-02T09:11:28.270Z,1842.00
2023-04-02T09:12:28.262Z,1863.00
2023-04-02T09:13:28.245Z,1854.00
2023-04-02T09:14:28.229Z,1743.00
2023-04-02T09:15:28.225Z,2064.00
2023-04-02T09:16:28.262Z,2188.00
2023-04-02T09:17:29.222Z,2045.00
2023-04-02T09:18:28.247Z,2008.00
2023-04-02T09:19:28.194Z,2010.00
2023-04-02T09:20:28.169Z,1941.00
2023-04-02T09:21:28.183Z,2064.00
2023-04-02T09:22:28.519Z,2365.00
2023-04-02T09:23:28.167Z,2451.00
2023-04-02T09:24:28.248Z,2737.00
2023-04-02T09:25:28.157Z,2594.00
2023-04-02T09:26:28.146Z,2410.00
2023-04-02T09:27:28.472Z,2224.00
2023-04-02T09:28:28.116Z,2138.00
2023-04-02T09:29:28.095Z,1974.00
2023-04-02T09:30:28.070Z,2224.00
2023-04-02T09:31:28.140Z,2401.00
2023-04-02T09:32:28.132Z,2350.00
2023-04-02T09:33:28.041Z,2259.00
2023-04-02T09:34:28.050Z,2501.00
2023-04-02T09:35:28.020Z,2391.00
2023-04-02T09:36:28.018Z,2304.00
2023-04-02T09:37:28.035Z,2786.00
2023-04-02T09:38:28.006Z,2941.00
2023-04-02T09:39:27.989Z,2986.00
2023-04-02T09:40:27.974Z,3060.00
2023-04-02T09:41:27.989Z,2996.00
2023-04-02T09:42:27.984Z,2817.00
2023-04-02T09:43:27.986Z,2707.00
2023-04-02T09:44:27.960Z,2590.00
2023-04-02T09:45:27.926Z,2669.00
2023-04-02T09:46:27.985Z,2633.00
2023-04-02T09:47:28.071Z,2617.00
2023-04-02T09:48:27.891Z,2770.00
2023-04-02T09:49:27.913Z,2840.00
2023-04-02T09:50:27.923Z,3034.00
2023-04-02T09:51:27.909Z,2998.00
2023-04-02T09:52:27.960Z,2801.00
2023-04-02T09:53:27.841Z,2653.00
2023-04-02T09:54:27.839Z,3276.00
2023-04-02T09:55:27.840Z,4166.00
2023-04-02T09:56:27.908Z,4381.00
2023-04-02T09:57:28.244Z,4574.00
2023-04-02T09:58:27.786Z,4403.00
2023-04-02T09:59:27.793Z,4841.00
2023-04-02T10:00:32.216Z,4784.00
2023-04-02T10:01:27.863Z,5106.00
2023-04-02T10:02:27.801Z,5969.00
2023-04-02T10:03:27.796Z,5619.00
2023-04-02T10:04:27.796Z,5501.00
2023-04-02T10:05:39.893Z,6789.00
2023-04-02T10:06:27.707Z,8029.00
2023-04-02T10:07:27.687Z,6536.00
2023-04-02T10:08:28.057Z,5899.00
2023-04-02T10:09:27.668Z,6074.00
2023-04-02T10:10:27.664Z,5949.00
2023-04-02T10:11:36.395Z,6214.00
2023-04-02T10:12:27.656Z,5317.00
2023-04-02T10:13:27.992Z,5116.00
2023-04-02T10:14:27.631Z,6096.00
2023-04-02T10:15:27.686Z,5409.00
2023-04-02T10:16:27.714Z,5319.00
2023-04-02T10:17:27.676Z,5593.00
2023-04-02T10:18:27.580Z,4990.00
2023-04-02T10:19:27.638Z,4651.00
2023-04-02T10:20:27.592Z,4532.00
2023-04-02T10:21:27.540Z,4866.00
2023-04-02T10:22:27.580Z,4769.00
2023-04-02T10:23:27.532Z,4382.00
2023-04-02T10:24:27.550Z,4597.00
2023-04-02T10:25:27.539Z,4011.00
2023-04-02T10:26:27.494Z,4087.00
2023-04-02T10:27:27.529Z,4580.00
2023-04-02T10:28:27.476Z,4767.00
2023-04-02T10:29:27.481Z,4285.00
2023-04-02T10:30:27.479Z,3914.00
2023-04-02T10:31:27.484Z,3821.00
2023-04-02T10:32:27.497Z,4363.00
2023-04-02T10:33:27.422Z,4233.00
2023-04-02T10:34:27.416Z,4085.00
2023-04-02T10:35:27.451Z,3681.00
2023-04-02T10:36:27.401Z,3343.00
2023-04-02T10:37:27.438Z,2982.00
2023-04-02T10:38:27.387Z,2695.00
2023-04-02T10:39:27.363Z,2712.00
2023-04-02T10:40:27.357Z,3315.00
2023-04-02T10:41:27.359Z,3521.00
2023-04-02T10:42:27.391Z,3135.00
2023-04-02T10:43:27.320Z,2721.00
2023-04-02T10:44:27.317Z,2669.00
2023-04-02T10:45:27.337Z,2863.00
2023-04-02T10:46:27.338Z,2876.00
2023-04-02T10:47:27.414Z,2804.00
2023-04-02T10:48:27.300Z,3143.00
2023-04-02T10:49:27.287Z,3187.00
2023-04-02T10:50:27.250Z,3197.00
2023-04-02T10:51:27.256Z,3050.00
2023-04-02T10:52:27.249Z,3478.00
2023-04-02T10:53:27.265Z,3854.00
2023-04-02T10:54:27.262Z,3289.00
2023-04-02T10:55:27.201Z,2828.00
2023-04-02T10:56:28.510Z,2905.00
2023-04-02T10:57:27.215Z,3142.00
2023-04-02T10:58:27.208Z,3036.00
2023-04-02T10:59:27.164Z,2684.00
2023-04-02T11:00:27.175Z,2971.00
2023-04-02T11:01:27.144Z,3604.00
2023-04-02T11:02:27.182Z,3482.00
2023-04-02T11:03:27.257Z,3504.00
2023-04-02T11:04:27.123Z,3220.00
2023-04-02T11:05:27.088Z,3118.00
2023-04-02T11:06:28.452Z,3251.00
2023-04-02T11:07:27.099Z,3460.00
2023-04-02T11:08:27.449Z,3719.00
2023-04-02T11:09:27.060Z,3539.00
2023-04-02T11:10:27.050Z,3002.00
2023-04-02T11:11:27.038Z,3135.00
2023-04-02T11:12:27.023Z,3820.00
2023-04-02T11:13:27.035Z,4484.00
2023-04-02T11:14:27.060Z,4671.00
2023-04-02T11:15:26.993Z,4175.00
2023-04-02T11:16:27.053Z,3657.00
2023-04-02T11:17:27.011Z,3596.00
2023-04-02T11:18:27.004Z,3672.00
2023-04-02T11:19:26.955Z,3599.00
2023-04-02T11:20:26.948Z,3852.00
2023-04-02T11:21:26.961Z,4075.00
2023-04-02T11:22:26.925Z,4131.00
2023-04-02T11:23:27.421Z,4082.00
2023-04-02T11:24:26.903Z,3989.00
2023-04-02T11:25:26.912Z,4001.00
2023-04-02T11:26:26.884Z,4505.00
2023-04-02T11:27:26.872Z,4252.00
2023-04-02T11:28:27.154Z,3784.00
2023-04-02T11:29:26.845Z,3898.00
2023-04-02T11:30:26.841Z,4277.00
2023-04-02T11:31:26.857Z,4920.00
2023-04-02T11:32:26.843Z,5113.00
2023-04-02T11:33:36.623Z,5328.00
2023-04-02T11:34:26.806Z,4919.00
2023-04-02T11:35:26.792Z,4719.00
2023-04-02T11:36:26.857Z,3899.00
2023-04-02T11:37:26.762Z,3752.00
2023-04-02T11:38:26.774Z,3879.00
2023-04-02T11:39:26.766Z,4788.00
2023-04-02T11:40:26.742Z,5356.00
2023-04-02T11:41:26.724Z,5282.00
2023-04-02T11:42:26.733Z,5684.00
2023-04-02T11:43:26.756Z,5161.00
2023-04-02T11:44:26.696Z,5304.00
2023-04-02T11:45:26.697Z,5540.00
2023-04-02T11:46:26.797Z,5997.00
2023-04-02T11:47:26.719Z,5598.00
2023-04-02T11:48:26.688Z,5598.00
2023-04-02T11:49:26.651Z,5724.00
2023-04-02T11:50:26.633Z,5541.00
2023-04-02T11:51:26.620Z,5290.00
2023-04-02T11:52:26.620Z,5529.00
2023-04-02T11:53:26.771Z,6365.00
2023-04-02T11:54:26.643Z,6624.00
2023-04-02T11:55:26.584Z,5999.00
2023-04-02T11:56:26.592Z,5842.00
2023-04-02T11:57:26.609Z,6279.00
2023-04-02T11:58:26.564Z,6130.00
2023-04-02T11:59:26.570Z,6045.00
2023-04-02T12:00:26.535Z,5862.00
2023-04-02T12:01:26.513Z,6222.00
2023-04-02T12:02:26.575Z,6603.00
2023-04-02T12:03:26.532Z,6084.00
2023-04-02T12:04:26.502Z,5671.00
2023-04-02T12:05:26.578Z,5633.00
2023-04-02T12:06:26.474Z,5921.00
2023-04-02T12:07:26.452Z,6492.00
2023-04-02T12:08:26.801Z,6307.00
2023-04-02T12:09:26.428Z,6204.00
2023-04-02T12:10:26.444Z,6221.00
2023-04-02T12:11:26.457Z,5995.00
2023-04-02T12:12:26.403Z,5716.00
2023-04-02T12:13:26.976Z,6050.00
2023-04-02T12:14:26.387Z,5897.00
2023-04-02T12:15:26.397Z,5316.00
2023-04-02T12:16:26.404Z,5149.00
2023-04-02T12:17:26.413Z,5218.00
2023-04-02T12:18:26.365Z,5262.00
2023-04-02T12:19:26.332Z,5123.00
2023-04-02T12:20:26.335Z,4885.00
2023-04-02T12:21:26.312Z,5120.00
2023-04-02T12:22:26.317Z,5577.00
2023-04-02T12:23:26.580Z,5631.00
2023-04-02T12:24:26.278Z,5619.00
2023-04-02T12:25:26.273Z,6155.00
2023-04-02T12:26:26.253Z,6053.00
2023-04-02T12:27:26.244Z,5583.00
2023-04-02T12:28:26.279Z,5138.00
2023-04-02T12:29:26.281Z,5220.00
2023-04-02T12:30:26.233Z,5960.00
2023-04-02T12:31:26.309Z,5655.00
2023-04-02T12:32:27.850Z,2756.00
2023-04-02T12:33:26.187Z,7718.00
2023-04-02T12:34:26.192Z,5378.00
2023-04-02T12:35:26.199Z,5645.00
2023-04-02T12:36:26.161Z,5530.00